world map with KIR marked

KIR - Airport

This information may not be accurate or current and is not valid for navigation or flight planning. No warranty of fitness for any purpose is made or implied.

flag of Munsterflag of Ireland

Donate via PayPal

Additional information is available on the NEW Great Circle Mapper

Location
City:  Killarney, County Kerry, Munster, Ireland
Name:Kerry (Farranfore)
ICAO / IATA:EIKY / KIR

Details
Type:Airport (Aerodrome, Airfield)
Latitude:52°10'51"N (52.180878)
Longitude:9°31'26"W (-9.523782)
Elevation:112 ft (34 m)
Runways:2
Longest:6562 × 148 ft (2000 × 45 m)

Time
Timezone:UTC+0 (DST+3)
Local Time:

Weather
METAR:EIKY  041400Z VRB01KT 9999 FEW032 10/03 Q1017

Related Locations
Nearby:
Farthest:SZS: 12050 mi / 19393 km
Ryan's Creek, Stewart Island, STL, NZ

Find:

   beyond  
but within

Other Information
Maps:
Links:
Sources:

  


 


Great Circle Mapper   Great Circle Mapper
Great Circle Mapper FAQ   Great Circle Mapper FAQ
  Karl's Home Page
KLSē   KLSē Home
   GC on Facebook
Airlines of the World   Airlines of the World
Donate via PayPal


Copyright © 2004-2019, Karl L. Swartz. All rights reserved.
All trademarks mentioned herein belong to their respective owners.

Please see credits for attribution and copyright information.

Karl Swartz <karl@kls2.com>
  Powered by FreeBSD
Valid HTML 4.01!
Labeled with ICRA
hCard Microformat
Geo Microformat